createdAt,value
2023-01-23T00:00:17.066Z,18.03
2023-01-23T00:02:45.762Z,16.73
2023-01-23T00:05:14.533Z,18.03
2023-01-23T00:07:43.329Z,16.33
2023-01-23T00:10:12.987Z,17.63
2023-01-23T00:12:44.658Z,18.50
2023-01-23T00:15:14.786Z,15.90
2023-01-23T00:17:45.419Z,17.30
2023-01-23T00:20:14.899Z,15.70
2023-01-23T00:22:43.531Z,16.67
2023-01-23T00:25:12.366Z,17.57
2023-01-23T00:27:44.346Z,14.90
2023-01-23T00:30:13.868Z,17.70
2023-01-23T00:32:42.524Z,16.37
2023-01-23T00:35:11.222Z,15.47
2023-01-23T00:37:39.961Z,17.03
2023-01-23T00:40:10.032Z,16.33
2023-01-23T00:42:39.823Z,18.23
2023-01-23T00:45:10.462Z,18.27
2023-01-23T00:47:38.974Z,18.90
2023-01-23T00:50:07.968Z,19.13
2023-01-23T00:52:36.644Z,20.50
2023-01-23T00:55:09.700Z,20.90
2023-01-23T00:57:38.253Z,19.27
2023-01-23T01:00:07.947Z,19.40
2023-01-23T01:02:38.669Z,16.93
2023-01-23T01:05:08.957Z,17.87
2023-01-23T01:07:37.541Z,17.30
2023-01-23T01:10:07.170Z,16.47
2023-01-23T01:12:35.722Z,17.47
2023-01-23T01:15:06.183Z,16.70
2023-01-23T01:17:34.729Z,16.70
2023-01-23T01:20:06.424Z,17.70
2023-01-23T01:22:35.199Z,17.57
2023-01-23T01:25:04.020Z,19.63
2023-01-23T01:27:32.548Z,17.60
2023-01-23T01:30:01.277Z,20.87
2023-01-23T01:32:29.951Z,17.10
2023-01-23T01:34:58.494Z,16.20
2023-01-23T01:37:28.603Z,18.37
2023-01-23T01:39:57.210Z,19.30
2023-01-23T01:42:28.478Z,17.13
2023-01-23T01:44:59.528Z,19.87
2023-01-23T01:47:28.224Z,19.10
2023-01-23T01:50:01.230Z,19.73
2023-01-23T01:52:31.604Z,16.73
2023-01-23T01:55:03.566Z,19.37
2023-01-23T01:57:34.891Z,19.43
2023-01-23T02:00:08.464Z,20.00
2023-01-23T02:02:47.420Z,19.53
2023-01-23T02:05:20.224Z,17.77
2023-01-23T02:07:55.590Z,18.03
2023-01-23T02:10:26.698Z,18.87
2023-01-23T02:12:55.178Z,20.33
2023-01-23T02:15:25.048Z,19.07
2023-01-23T02:17:56.370Z,18.90
2023-01-23T02:20:27.615Z,18.40
2023-01-23T02:23:10.904Z,19.73
2023-01-23T02:25:45.341Z,19.97
2023-01-23T02:28:18.872Z,20.93
2023-01-23T02:30:48.158Z,20.00
2023-01-23T02:33:45.868Z,20.50
2023-01-23T02:36:19.030Z,20.37
2023-01-23T02:38:56.897Z,19.93
2023-01-23T02:41:30.325Z,22.50
2023-01-23T02:44:04.462Z,20.17
2023-01-23T02:46:33.285Z,22.13
2023-01-23T02:49:02.710Z,22.20
2023-01-23T02:51:32.745Z,21.57
2023-01-23T02:54:01.696Z,22.60
2023-01-23T02:56:30.518Z,19.00
2023-01-23T02:59:17.863Z,20.03
2023-01-23T03:01:46.395Z,22.93
2023-01-23T03:04:14.945Z,20.77
2023-01-23T03:06:43.564Z,21.57
2023-01-23T03:09:16.082Z,19.53
2023-01-23T03:11:45.977Z,21.30
2023-01-23T03:14:19.976Z,19.80
2023-01-23T03:16:51.579Z,19.23
2023-01-23T03:19:23.276Z,20.10
2023-01-23T03:21:52.749Z,20.30
2023-01-23T03:24:22.118Z,19.50
2023-01-23T03:26:51.675Z,21.73
2023-01-23T03:29:55.098Z,19.67
2023-01-23T03:32:26.205Z,19.93
2023-01-23T03:34:57.501Z,21.40
2023-01-23T03:37:26.168Z,20.20
2023-01-23T03:40:13.859Z,20.03
2023-01-23T03:42:42.639Z,20.27
2023-01-23T03:45:15.480Z,20.00
2023-01-23T03:47:50.280Z,20.20
2023-01-23T03:50:19.418Z,20.13
2023-01-23T03:52:48.121Z,20.27
2023-01-23T03:55:17.512Z,19.60
2023-01-23T03:57:47.998Z,19.87
2023-01-23T04:00:22.062Z,20.20
2023-01-23T04:02:57.946Z,21.03
2023-01-23T04:05:26.728Z,20.53
2023-01-23T04:07:55.391Z,19.90
2023-01-23T04:10:25.045Z,17.57
2023-01-23T04:12:56.850Z,18.60
2023-01-23T04:15:27.077Z,18.33
2023-01-23T04:17:58.140Z,19.80
2023-01-23T04:20:27.789Z,20.40
2023-01-23T04:22:58.190Z,22.37
2023-01-23T04:25:30.963Z,20.03
2023-01-23T04:27:59.509Z,20.73
2023-01-23T04:30:29.698Z,17.10
2023-01-23T04:33:02.440Z,17.60
2023-01-23T04:35:31.095Z,20.17
2023-01-23T04:38:00.424Z,18.07
2023-01-23T04:40:30.109Z,18.43
2023-01-23T04:43:01.600Z,16.40
2023-01-23T04:45:37.130Z,19.47
2023-01-23T04:48:19.840Z,19.67
2023-01-23T04:50:50.135Z,19.60
2023-01-23T04:53:21.968Z,20.17
2023-01-23T04:55:58.209Z,21.23
2023-01-23T04:58:26.841Z,19.93
2023-01-23T05:01:05.228Z,19.00
2023-01-23T05:03:36.165Z,19.47
2023-01-23T05:06:05.410Z,22.40
2023-01-23T05:08:34.744Z,19.13
2023-01-23T05:11:23.537Z,17.43
2023-01-23T05:13:52.194Z,19.70
2023-01-23T05:16:24.142Z,18.10
2023-01-23T05:19:11.681Z,19.47
2023-01-23T05:21:41.129Z,17.40
2023-01-23T05:24:13.768Z,19.73
2023-01-23T05:26:43.925Z,18.50
2023-01-23T05:29:12.703Z,17.50
2023-01-23T05:31:51.487Z,18.37
2023-01-23T05:34:38.722Z,15.90
2023-01-23T05:37:17.706Z,17.00
2023-01-23T05:39:50.931Z,13.97
2023-01-23T05:42:20.562Z,14.00
2023-01-23T05:45:01.888Z,14.70
2023-01-23T05:47:39.353Z,15.43
2023-01-23T05:50:11.191Z,15.10
2023-01-23T05:52:39.975Z,16.57
2023-01-23T05:55:09.551Z,14.27
2023-01-23T05:57:41.111Z,16.53
2023-01-23T06:00:28.309Z,15.73
2023-01-23T06:03:24.275Z,16.50
2023-01-23T06:06:03.258Z,16.63
2023-01-23T06:08:31.931Z,13.70
2023-01-23T06:11:00.801Z,16.03
2023-01-23T06:13:30.456Z,14.07
2023-01-23T06:15:59.703Z,16.60
2023-01-23T06:18:29.987Z,15.43
2023-01-23T06:21:00.687Z,14.93
2023-01-23T06:23:30.624Z,16.87
2023-01-23T06:26:02.944Z,13.70
2023-01-23T06:28:32.890Z,14.53
2023-01-23T06:31:06.650Z,16.57
2023-01-23T06:33:53.053Z,14.37
2023-01-23T06:36:25.993Z,16.13
2023-01-23T06:38:55.540Z,17.20
2023-01-23T06:41:29.528Z,16.43
2023-01-23T06:44:03.150Z,16.40
2023-01-23T06:46:31.820Z,17.23
2023-01-23T06:49:03.369Z,16.83
2023-01-23T06:51:35.916Z,18.37
2023-01-23T06:54:09.711Z,17.17
2023-01-23T06:56:41.022Z,18.07
2023-01-23T06:59:11.892Z,16.87
2023-01-23T07:01:40.903Z,20.37
2023-01-23T07:04:27.073Z,17.70
2023-01-23T07:06:55.818Z,19.43
2023-01-23T07:09:25.739Z,15.60
2023-01-23T07:12:07.499Z,17.97
2023-01-23T07:14:36.648Z,14.83
2023-01-23T07:17:05.581Z,15.53
2023-01-23T07:19:35.892Z,16.37
2023-01-23T07:22:08.237Z,16.53
2023-01-23T07:24:36.926Z,15.83
2023-01-23T07:27:05.587Z,17.23
2023-01-23T07:29:34.556Z,17.40
2023-01-23T07:32:03.208Z,16.57
2023-01-23T07:34:31.932Z,16.67
2023-01-23T07:37:02.206Z,18.87
2023-01-23T07:39:30.879Z,15.73
2023-01-23T07:41:59.433Z,15.70
2023-01-23T07:44:30.265Z,16.97
2023-01-23T07:46:59.082Z,17.17
2023-01-23T07:49:27.735Z,17.87
2023-01-23T07:51:56.402Z,17.97
2023-01-23T07:54:26.457Z,17.37
2023-01-23T07:56:55.176Z,17.13
2023-01-23T07:59:24.046Z,16.13
2023-01-23T08:01:52.790Z,16.97
2023-01-23T08:04:22.082Z,17.80
2023-01-23T08:06:50.731Z,18.57
2023-01-23T08:09:19.439Z,15.03
2023-01-23T08:11:52.119Z,18.20
2023-01-23T08:14:20.915Z,17.10
2023-01-23T08:16:55.296Z,15.70
2023-01-23T08:19:25.443Z,16.30
2023-01-23T08:21:54.360Z,16.60
2023-01-23T08:24:23.276Z,18.33
2023-01-23T08:26:53.590Z,18.57
2023-01-23T08:29:22.383Z,18.67
2023-01-23T08:31:51.845Z,20.37
2023-01-23T08:34:20.535Z,19.03
2023-01-23T08:36:49.190Z,18.07
2023-01-23T08:39:18.461Z,19.50
2023-01-23T08:41:47.534Z,19.37
2023-01-23T08:44:17.670Z,20.00
2023-01-23T08:46:47.428Z,20.10
2023-01-23T08:49:19.648Z,19.73
2023-01-23T08:51:48.531Z,18.87
2023-01-23T08:54:17.222Z,20.47
2023-01-23T08:56:45.946Z,18.47
2023-01-23T08:59:14.618Z,18.43
2023-01-23T09:01:46.356Z,18.47
2023-01-23T09:04:15.484Z,18.03
2023-01-23T09:06:44.778Z,17.83
2023-01-23T09:09:13.428Z,18.10
2023-01-23T09:11:41.964Z,18.30
2023-01-23T09:14:10.561Z,18.40
2023-01-23T09:16:40.613Z,16.83
2023-01-23T09:19:12.908Z,18.13
2023-01-23T09:21:41.697Z,18.23
2023-01-23T09:24:10.372Z,16.27
2023-01-23T09:26:39.091Z,14.80
2023-01-23T09:29:07.897Z,15.57
2023-01-23T09:31:36.820Z,15.10
2023-01-23T09:34:07.974Z,16.30
2023-01-23T09:36:43.266Z,15.60
2023-01-23T09:39:12.711Z,16.17
2023-01-23T09:41:42.530Z,15.73
2023-01-23T09:44:16.844Z,15.67
2023-01-23T09:46:51.542Z,16.53
2023-01-23T09:49:27.371Z,16.43
2023-01-23T09:52:01.878Z,15.37
2023-01-23T09:54:38.200Z,18.03
2023-01-23T09:57:15.190Z,15.90
2023-01-23T09:59:59.550Z,16.27
2023-01-23T10:02:29.726Z,15.10
2023-01-23T10:05:02.673Z,16.73
2023-01-23T10:07:49.446Z,16.53
2023-01-23T10:10:44.388Z,17.57
2023-01-23T10:13:17.240Z,18.50
2023-01-23T10:16:06.032Z,20.10
2023-01-23T10:18:43.521Z,17.37
2023-01-23T10:21:22.493Z,20.67
2023-01-23T10:24:02.956Z,20.07
2023-01-23T10:26:34.430Z,20.07
2023-01-23T10:29:11.665Z,22.27
2023-01-23T10:31:47.729Z,20.13
2023-01-23T10:34:21.539Z,20.33
2023-01-23T10:37:03.637Z,19.17
2023-01-23T10:39:43.055Z,22.27
2023-01-23T10:42:14.231Z,22.43
2023-01-23T10:44:43.061Z,18.63
2023-01-23T10:47:22.603Z,18.87
2023-01-23T10:49:51.840Z,18.93
2023-01-23T10:52:36.040Z,17.67
2023-01-23T10:55:07.574Z,16.47
2023-01-23T10:57:48.545Z,18.17
2023-01-23T11:00:23.758Z,18.80
2023-01-23T11:02:52.600Z,17.43
2023-01-23T11:05:50.658Z,15.63
2023-01-23T11:08:26.426Z,16.27
2023-01-23T11:11:19.094Z,14.43
2023-01-23T11:13:50.008Z,15.00
2023-01-23T11:16:21.876Z,15.63
2023-01-23T11:18:55.770Z,14.83
2023-01-23T11:21:28.249Z,15.77
2023-01-23T11:24:10.834Z,13.70
2023-01-23T11:26:41.002Z,16.63
2023-01-23T11:29:25.435Z,15.30
2023-01-23T11:31:59.472Z,14.57
2023-01-23T11:34:35.259Z,16.93
2023-01-23T11:37:14.363Z,16.23
2023-01-23T11:39:50.261Z,16.37
2023-01-23T11:42:20.812Z,15.63
2023-01-23T11:44:51.397Z,16.43
2023-01-23T11:47:50.321Z,15.63
2023-01-23T11:50:49.933Z,13.97
2023-01-23T11:53:41.109Z,15.30
2023-01-23T11:56:54.967Z,15.30
2023-01-23T11:59:46.165Z,15.40
2023-01-23T12:02:53.750Z,16.10
2023-01-23T12:05:33.167Z,14.70
2023-01-23T12:08:20.212Z,15.67
2023-01-23T12:10:58.330Z,13.67
2023-01-23T12:13:43.583Z,12.57
2023-01-23T12:16:25.845Z,14.97
2023-01-23T12:19:14.654Z,13.03
2023-01-23T12:21:49.255Z,12.67
2023-01-23T12:24:29.132Z,14.77
2023-01-23T12:27:03.881Z,13.17
2023-01-23T12:29:46.781Z,12.70
2023-01-23T12:32:50.220Z,11.70
2023-01-23T12:35:31.227Z,13.23
2023-01-23T12:38:11.831Z,10.83
2023-01-23T12:40:45.058Z,12.37
2023-01-23T12:43:18.156Z,11.43
2023-01-23T12:45:51.385Z,9.53
2023-01-23T12:48:28.584Z,11.90
2023-01-23T12:51:03.472Z,12.43
2023-01-23T12:53:36.213Z,11.93
2023-01-23T12:56:11.383Z,12.73
2023-01-23T12:58:52.582Z,12.90
2023-01-23T13:01:46.063Z,13.03
2023-01-23T13:04:29.211Z,11.77
2023-01-23T13:07:11.079Z,12.87
2023-01-23T13:09:51.640Z,13.50
2023-01-23T13:12:23.423Z,12.63
2023-01-23T13:15:30.934Z,11.77
2023-01-23T13:17:48.354Z,12.53
2023-01-23T13:20:42.241Z,11.63
2023-01-23T13:23:30.890Z,12.50
2023-01-23T13:26:29.398Z,12.90
2023-01-23T13:29:02.289Z,12.57
2023-01-23T13:31:38.682Z,12.47
2023-01-23T13:34:39.362Z,14.20
2023-01-23T13:37:35.369Z,12.33
2023-01-23T13:40:14.605Z,12.73
2023-01-23T13:42:52.882Z,15.97
2023-01-23T13:45:31.128Z,13.83
2023-01-23T14:03:17.883Z,13.97
2023-01-23T14:20:39.837Z,14.53
2023-01-23T14:23:37.082Z,11.03
2023-01-23T14:26:09.509Z,9.80
2023-01-23T14:28:38.762Z,11.10
2023-01-23T14:31:09.410Z,11.20
2023-01-23T14:33:44.045Z,10.47
2023-01-23T14:36:18.026Z,11.80
2023-01-23T14:38:49.726Z,12.30
2023-01-23T14:41:20.873Z,11.63
2023-01-23T14:43:57.560Z,11.53
2023-01-23T14:46:53.221Z,11.27
2023-01-23T14:49:28.371Z,13.20
2023-01-23T14:52:01.863Z,10.90
2023-01-23T14:54:33.740Z,13.10
2023-01-23T14:57:05.733Z,12.57
2023-01-23T14:59:38.629Z,12.30
2023-01-23T15:02:27.225Z,12.70
2023-01-23T15:05:19.425Z,13.93
2023-01-23T15:07:54.298Z,13.47
2023-01-23T15:10:27.065Z,13.03
2023-01-23T15:12:58.634Z,13.67
2023-01-23T15:15:28.364Z,12.50
2023-01-23T15:18:00.531Z,14.43
2023-01-23T15:20:32.717Z,13.30
2023-01-23T15:23:22.341Z,15.07
2023-01-23T15:26:10.462Z,13.90
2023-01-23T15:28:49.712Z,14.53
2023-01-23T15:31:40.422Z,13.67
2023-01-23T15:34:21.484Z,15.67
2023-01-23T15:36:52.327Z,15.37
2023-01-23T15:39:23.798Z,15.83
2023-01-23T15:41:56.878Z,14.03
2023-01-23T15:44:30.191Z,15.73
2023-01-23T15:47:01.260Z,14.17
2023-01-23T15:49:30.734Z,15.80
2023-01-23T15:52:00.337Z,14.67
2023-01-23T15:54:33.861Z,16.90
2023-01-23T15:57:07.852Z,15.67
2023-01-23T15:59:38.224Z,15.07
2023-01-23T16:02:29.436Z,14.67
2023-01-23T16:04:58.820Z,16.57
2023-01-23T16:07:34.294Z,17.83
2023-01-23T16:10:05.037Z,18.33
2023-01-23T16:12:38.848Z,15.80
2023-01-23T16:15:16.276Z,17.50
2023-01-23T16:17:45.052Z,18.60
2023-01-23T16:20:17.404Z,18.20
2023-01-23T16:22:46.580Z,15.93
2023-01-23T16:25:41.809Z,17.17
2023-01-23T16:28:15.716Z,17.33
2023-01-23T16:30:44.599Z,18.57
2023-01-23T16:33:14.047Z,19.03
2023-01-23T16:35:43.832Z,19.93
2023-01-23T16:38:21.044Z,18.00
2023-01-23T16:40:53.402Z,18.53
2023-01-23T16:43:24.345Z,17.97
2023-01-23T16:45:56.064Z,20.77
2023-01-23T16:48:27.589Z,21.50
2023-01-23T16:51:00.232Z,20.17
2023-01-23T16:53:31.590Z,19.90
2023-01-23T16:56:01.991Z,20.97
2023-01-23T16:58:36.162Z,19.90
2023-01-23T17:01:09.624Z,20.10
2023-01-23T17:03:41.915Z,20.87
2023-01-23T17:06:14.795Z,20.20
2023-01-23T17:08:43.660Z,20.20
2023-01-23T17:11:19.622Z,20.13
2023-01-23T17:13:52.424Z,19.73
2023-01-23T17:16:27.361Z,21.37
2023-01-23T17:18:58.328Z,21.83
2023-01-23T17:21:32.430Z,22.23
2023-01-23T17:24:01.221Z,19.10
2023-01-23T17:26:30.016Z,19.37
2023-01-23T17:29:00.422Z,19.03
2023-01-23T17:31:32.708Z,18.27
2023-01-23T17:34:02.932Z,19.77
2023-01-23T17:36:31.618Z,18.93
2023-01-23T17:39:00.707Z,18.87
2023-01-23T17:41:32.411Z,20.30
2023-01-23T17:44:03.143Z,18.17
2023-01-23T17:46:36.833Z,20.13
2023-01-23T17:49:06.636Z,20.33
2023-01-23T17:51:35.377Z,20.47
2023-01-23T17:54:03.819Z,20.83
2023-01-23T17:56:39.262Z,20.77
2023-01-23T17:59:11.913Z,20.23
2023-01-23T18:01:40.855Z,20.03
2023-01-23T18:04:16.691Z,23.33
2023-01-23T18:06:45.957Z,21.80
2023-01-23T18:09:21.397Z,20.23
2023-01-23T18:11:54.461Z,22.63
2023-01-23T18:14:37.702Z,22.23
2023-01-23T18:17:17.510Z,23.83
2023-01-23T18:19:46.532Z,22.13
2023-01-23T18:22:15.706Z,23.57
2023-01-23T18:24:44.918Z,19.93
2023-01-23T18:27:21.797Z,21.17
2023-01-23T18:30:11.528Z,22.13
2023-01-23T18:33:18.565Z,22.43
2023-01-23T18:36:08.015Z,22.50
2023-01-23T18:38:45.241Z,22.20
2023-01-23T18:41:22.513Z,22.13
2023-01-23T18:43:57.040Z,23.03
2023-01-23T18:46:28.151Z,21.60
2023-01-23T18:48:57.315Z,21.37
2023-01-23T18:51:34.193Z,23.57
2023-01-23T18:54:13.347Z,22.17
2023-01-23T18:56:48.290Z,22.20
2023-01-23T18:59:24.144Z,20.87
2023-01-23T19:01:55.764Z,23.87
2023-01-23T19:04:34.673Z,21.87
2023-01-23T19:07:03.894Z,24.03
2023-01-23T19:09:35.495Z,20.43
2023-01-23T19:12:20.600Z,21.23
2023-01-23T19:15:04.621Z,21.87
2023-01-23T19:17:44.682Z,18.60
2023-01-23T19:20:25.819Z,18.80
2023-01-23T19:23:07.860Z,18.03
2023-01-23T19:25:36.667Z,18.00
2023-01-23T19:28:05.709Z,20.23
2023-01-23T19:30:37.109Z,19.63
2023-01-23T19:33:07.165Z,18.87
2023-01-23T19:35:35.659Z,18.83
2023-01-23T19:38:04.289Z,17.97
2023-01-23T19:40:32.795Z,20.83
2023-01-23T19:43:13.496Z,20.67
2023-01-23T19:46:10.664Z,18.17
2023-01-23T19:48:40.837Z,17.40
2023-01-23T19:51:17.590Z,18.80
2023-01-23T19:53:46.964Z,19.03
2023-01-23T19:56:17.992Z,17.77
2023-01-23T19:58:47.434Z,17.23
2023-01-23T20:01:24.405Z,17.07
2023-01-23T20:03:54.538Z,17.50
2023-01-23T20:06:23.185Z,16.67
2023-01-23T20:08:51.840Z,20.30
2023-01-23T20:11:20.452Z,18.73
2023-01-23T20:13:49.278Z,18.77
2023-01-23T20:16:21.749Z,18.50
2023-01-23T20:18:50.978Z,18.47
2023-01-23T20:21:22.458Z,17.73
2023-01-23T20:23:51.169Z,21.50
2023-01-23T20:26:21.710Z,21.37
2023-01-23T20:28:53.405Z,18.87
2023-01-23T20:31:22.820Z,22.13
2023-01-23T20:33:52.047Z,19.33
2023-01-23T20:36:22.206Z,20.50
2023-01-23T20:38:50.735Z,20.77
2023-01-23T20:41:20.770Z,20.40
2023-01-23T20:43:50.368Z,21.50
2023-01-23T20:46:19.524Z,21.47
2023-01-23T20:48:49.136Z,20.93
2023-01-23T20:51:18.616Z,23.30
2023-01-23T20:53:47.814Z,20.60
2023-01-23T20:56:18.867Z,21.63
2023-01-23T20:59:06.985Z,21.73
2023-01-23T21:01:51.635Z,20.50
2023-01-23T21:04:20.513Z,18.37
2023-01-23T21:06:49.460Z,19.80
2023-01-23T21:09:19.624Z,19.33
2023-01-23T21:11:49.899Z,19.07
2023-01-23T21:14:19.907Z,19.93
2023-01-23T21:16:49.421Z,19.03
2023-01-23T21:19:18.560Z,19.43
2023-01-23T21:21:47.193Z,18.70
2023-01-23T21:24:15.831Z,22.33
2023-01-23T21:26:47.947Z,19.43
2023-01-23T21:29:16.680Z,18.33
2023-01-23T21:31:45.375Z,22.00
2023-01-23T21:34:16.098Z,18.93
2023-01-23T21:36:45.067Z,19.73
2023-01-23T21:40:05.648Z,19.63
2023-01-23T21:42:35.709Z,18.77
2023-01-23T21:45:04.970Z,18.83
2023-01-23T21:47:33.434Z,19.20
2023-01-23T21:50:02.044Z,19.90
2023-01-23T21:52:31.194Z,18.70
2023-01-23T21:54:59.791Z,18.13
2023-01-23T21:57:28.449Z,19.10
2023-01-23T22:00:15.914Z,19.40
2023-01-23T22:02:44.619Z,19.90
2023-01-23T22:05:13.336Z,18.03
2023-01-23T22:07:41.875Z,20.23
2023-01-23T22:10:11.533Z,19.30
2023-01-23T22:12:40.199Z,18.50
2023-01-23T22:15:11.576Z,18.37
2023-01-23T22:17:40.195Z,18.57
2023-01-23T22:20:10.268Z,18.63
2023-01-23T22:22:38.958Z,18.90
2023-01-23T22:25:08.801Z,20.27
2023-01-23T22:27:37.424Z,18.87
2023-01-23T22:30:06.636Z,19.47
2023-01-23T22:32:36.939Z,17.00
2023-01-23T22:35:06.135Z,16.90
2023-01-23T22:37:34.702Z,18.67
2023-01-23T22:40:03.337Z,18.20
2023-01-23T22:42:32.206Z,20.73
2023-01-23T22:45:00.866Z,17.43
2023-01-23T22:47:29.886Z,19.03
2023-01-23T22:50:00.194Z,16.80
2023-01-23T22:52:28.791Z,17.63
2023-01-23T22:54:57.387Z,15.67
2023-01-23T22:57:26.135Z,18.03
2023-01-23T22:59:54.869Z,18.67
2023-01-23T23:02:23.378Z,17.37
2023-01-23T23:04:51.931Z,18.20
2023-01-23T23:07:22.007Z,17.30
2023-01-23T23:09:50.587Z,15.63
2023-01-23T23:12:19.153Z,17.10
2023-01-23T23:14:47.827Z,15.80
2023-01-23T23:17:16.596Z,19.13
2023-01-23T23:19:45.331Z,16.97
2023-01-23T23:22:13.914Z,14.97
2023-01-23T23:24:44.099Z,14.83
2023-01-23T23:27:12.660Z,16.63
2023-01-23T23:29:41.415Z,18.27
2023-01-23T23:32:10.397Z,17.53
2023-01-23T23:34:38.938Z,17.00
2023-01-23T23:37:07.470Z,17.53
2023-01-23T23:39:36.027Z,15.30
2023-01-23T23:42:06.320Z,17.57
2023-01-23T23:44:34.941Z,16.27
2023-01-23T23:47:03.447Z,17.67
2023-01-23T23:49:32.209Z,16.47
2023-01-23T23:52:00.726Z,16.37
2023-01-23T23:54:29.358Z,16.20
2023-01-23T23:56:57.928Z,14.07
2023-01-23T23:59:27.970Z,16.47
